KMKT/MKT METAR and TAF weather

Enter ICAO airport designator
Station Type Date Time Source
KMKT METAR 2019/12/07 04:56 UTC NOAA

KMKT 070456Z AUTO 18009KT 10SM OVC100 M04/M06 A3024 RMK AO2 SLP261 T10391056 FZRANO


Station Type Date Time Source
KMKT Decoded METAR 2019/12/07 04:56 UTC NOAA

Mankato, Mankato Regional Airport, MN, United States (KMKT) 44-13N 093-55W
Dec 06, 2019 - 11:56 PM EST / 2019.12.07 0456 UTC
Wind: from the S (180 degrees) at 10 MPH (9 KT):0
Visibility: 10 mile(s):0
Sky conditions: overcast
Temperature: 25.0 F (-3.9 C)
Windchill: 15 F (-9 C):1
Dew Point: 21.9 F (-5.6 C)
Relative Humidity: 87%
Pressure (altimeter): 30.24 in. Hg (1024 hPa)
ob: KMKT 070456Z AUTO 18009KT 10SM OVC100 M04/M06 A3024 RMK AO2 SLP261 T10391056 FZRANO
cycle: 5

Station Type Date Time Source
KMKT TAF 2019/12/06 18:27 UTC NOAA

TAF KMKT 061725Z 0618/0718 VRB03KT P6SM SCT200
FM062100 22005KT P6SM SCT150
FM070000 19006KT P6SM SCT150
FM070300 17007KT P6SM SCT150

Example: see airport list